Aviation Digital Data Service (ADDS)

Output produced by METARs form (1558 UTC 28 April 2017)
found at http://aviationweather.gov/adds/metars/
 
KACK 281543Z 2816/2912 19011KT 3/4SM BR OVC003 
     FM281700 22012KT P6SM BKN040 
     FM282000 23011KT P6SM SCT130 
     FM290600 24007KT P6SM SCT130